Surfside, Florida
Current Conditions -  °F | °C
As of 10:53 AM on Monday 24 Nov 2014 (Local Time) from KOPF Reporting Station
Few Clouds Few Clouds  
Wind Chill: 86°   Ceiling: Unl
Heat Index: 95°   Visibility: 10mi
Dew Point: 75°   Wind: 13mph
Humidity: 70%   Direction: 170°S
Pressure: 30.02"   Gusts: NA
Location:  25.882°N, 80.1292°W
Report Text: KOPF 241553Z 17011KT 10SM FEW023 30/24 A3002 RMK AO2 SLP166 T03000239
Loading
Personal Weather Stations






























Interactive Weather Map New forecast layout! Learn more

10-Day Weather Forecast

Advertisements
Track Severe Weather on mobile